sensor_id;sensor_type;location;lat;lon;timestamp;P1;durP1;ratioP1;P2;durP2;ratioP2
12554;SDS011;6343;50.868;4.700;2023-03-01T00:02:03;15.97;;;8.33;;
12554;SDS011;6343;50.868;4.700;2023-03-01T00:04:30;10.50;;;7.70;;
12554;SDS011;6343;50.868;4.700;2023-03-01T00:06:56;12.77;;;8.47;;
12554;SDS011;6343;50.868;4.700;2023-03-01T00:09:22;11.63;;;8.07;;
12554;SDS011;6343;50.868;4.700;2023-03-01T00:11:48;12.27;;;8.47;;
12554;SDS011;6343;50.868;4.700;2023-03-01T00:14:15;13.43;;;8.30;;
12554;SDS011;6343;50.868;4.700;2023-03-01T00:16:43;13.10;;;8.57;;
12554;SDS011;6343;50.868;4.700;2023-03-01T00:19:11;12.47;;;7.90;;
12554;SDS011;6343;50.868;4.700;2023-03-01T00:21:38;12.00;;;8.50;;
12554;SDS011;6343;50.868;4.700;2023-03-01T00:24:05;12.77;;;7.90;;
12554;SDS011;6343;50.868;4.700;2023-03-01T00:26:31;13.00;;;8.57;;
12554;SDS011;6343;50.868;4.700;2023-03-01T00:28:58;15.13;;;8.63;;
12554;SDS011;6343;50.868;4.700;2023-03-01T00:31:28;15.70;;;7.80;;
12554;SDS011;6343;50.868;4.700;2023-03-01T00:33:58;13.23;;;8.33;;
12554;SDS011;6343;50.868;4.700;2023-03-01T00:36:25;12.23;;;8.53;;
12554;SDS011;6343;50.868;4.700;2023-03-01T00:38:53;11.60;;;8.07;;
12554;SDS011;6343;50.868;4.700;2023-03-01T00:41:19;14.00;;;8.50;;
12554;SDS011;6343;50.868;4.700;2023-03-01T00:43:47;12.50;;;8.30;;
12554;SDS011;6343;50.868;4.700;2023-03-01T00:46:15;15.47;;;8.33;;
12554;SDS011;6343;50.868;4.700;2023-03-01T00:48:41;13.67;;;8.80;;
12554;SDS011;6343;50.868;4.700;2023-03-01T00:51:11;13.30;;;9.70;;
12554;SDS011;6343;50.868;4.700;2023-03-01T00:53:37;13.97;;;9.43;;
12554;SDS011;6343;50.868;4.700;2023-03-01T00:56:05;15.70;;;9.87;;
12554;SDS011;6343;50.868;4.700;2023-03-01T00:58:31;11.03;;;8.47;;
12554;SDS011;6343;50.868;4.700;2023-03-01T01:00:58;10.77;;;8.40;;
12554;SDS011;6343;50.868;4.700;2023-03-01T01:03:24;10.83;;;8.00;;
12554;SDS011;6343;50.868;4.700;2023-03-01T01:05:54;14.37;;;8.83;;
12554;SDS011;6343;50.868;4.700;2023-03-01T01:08:20;12.53;;;8.23;;
12554;SDS011;6343;50.868;4.700;2023-03-01T01:10:46;10.90;;;7.13;;
12554;SDS011;6343;50.868;4.700;2023-03-01T01:13:13;11.03;;;7.07;;
12554;SDS011;6343;50.868;4.700;2023-03-01T01:15:39;10.67;;;7.60;;
12554;SDS011;6343;50.868;4.700;2023-03-01T01:18:05;9.60;;;7.20;;
12554;SDS011;6343;50.868;4.700;2023-03-01T01:20:32;11.63;;;7.50;;
12554;SDS011;6343;50.868;4.700;2023-03-01T01:22:58;12.97;;;7.33;;
12554;SDS011;6343;50.868;4.700;2023-03-01T01:25:24;12.07;;;7.90;;
12554;SDS011;6343;50.868;4.700;2023-03-01T01:27:51;12.17;;;7.70;;
12554;SDS011;6343;50.868;4.700;2023-03-01T01:30:17;10.93;;;7.90;;
12554;SDS011;6343;50.868;4.700;2023-03-01T01:32:43;14.90;;;7.93;;
12554;SDS011;6343;50.868;4.700;2023-03-01T01:35:09;11.90;;;7.87;;
12554;SDS011;6343;50.868;4.700;2023-03-01T01:37:35;10.73;;;7.47;;
12554;SDS011;6343;50.868;4.700;2023-03-01T01:40:01;9.43;;;7.37;;
12554;SDS011;6343;50.868;4.700;2023-03-01T01:42:31;13.93;;;7.70;;
12554;SDS011;6343;50.868;4.700;2023-03-01T01:47:42;12.07;;;7.93;;
12554;SDS011;6343;50.868;4.700;2023-03-01T01:50:09;8.57;;;6.67;;
12554;SDS011;6343;50.868;4.700;2023-03-01T01:52:40;11.87;;;7.40;;
12554;SDS011;6343;50.868;4.700;2023-03-01T01:55:07;10.47;;;7.07;;
12554;SDS011;6343;50.868;4.700;2023-03-01T01:57:39;9.60;;;6.90;;
12554;SDS011;6343;50.868;4.700;2023-03-01T02:00:08;9.23;;;6.47;;
12554;SDS011;6343;50.868;4.700;2023-03-01T02:02:34;13.37;;;7.47;;
12554;SDS011;6343;50.868;4.700;2023-03-01T02:05:22;9.27;;;7.00;;
12554;SDS011;6343;50.868;4.700;2023-03-01T02:07:46;10.50;;;6.37;;
12554;SDS011;6343;50.868;4.700;2023-03-01T02:10:13;10.47;;;7.17;;
12554;SDS011;6343;50.868;4.700;2023-03-01T02:12:39;11.40;;;7.47;;
12554;SDS011;6343;50.868;4.700;2023-03-01T02:15:05;10.40;;;7.27;;
12554;SDS011;6343;50.868;4.700;2023-03-01T02:17:31;10.87;;;8.03;;
12554;SDS011;6343;50.868;4.700;2023-03-01T02:22:43;10.50;;;6.27;;
12554;SDS011;6343;50.868;4.700;2023-03-01T02:27:50;10.37;;;7.33;;
12554;SDS011;6343;50.868;4.700;2023-03-01T02:30:19;8.83;;;6.37;;
12554;SDS011;6343;50.868;4.700;2023-03-01T02:32:46;11.43;;;6.70;;
12554;SDS011;6343;50.868;4.700;2023-03-01T02:35:13;9.53;;;6.90;;
12554;SDS011;6343;50.868;4.700;2023-03-01T02:37:40;10.03;;;7.40;;
12554;SDS011;6343;50.868;4.700;2023-03-01T02:40:08;9.03;;;6.73;;
12554;SDS011;6343;50.868;4.700;2023-03-01T02:42:44;9.63;;;7.03;;
12554;SDS011;6343;50.868;4.700;2023-03-01T02:45:13;10.50;;;7.43;;
12554;SDS011;6343;50.868;4.700;2023-03-01T02:47:39;11.27;;;7.43;;
12554;SDS011;6343;50.868;4.700;2023-03-01T02:50:11;12.10;;;7.17;;
12554;SDS011;6343;50.868;4.700;2023-03-01T02:55:36;9.47;;;7.50;;
12554;SDS011;6343;50.868;4.700;2023-03-01T02:58:03;13.07;;;7.57;;
12554;SDS011;6343;50.868;4.700;2023-03-01T03:00:31;8.53;;;7.07;;
12554;SDS011;6343;50.868;4.700;2023-03-01T03:02:59;10.60;;;7.37;;
12554;SDS011;6343;50.868;4.700;2023-03-01T03:05:29;11.17;;;7.37;;
12554;SDS011;6343;50.868;4.700;2023-03-01T03:07:56;10.50;;;7.63;;
12554;SDS011;6343;50.868;4.700;2023-03-01T03:10:23;9.20;;;6.87;;
12554;SDS011;6343;50.868;4.700;2023-03-01T03:12:51;9.80;;;7.17;;
12554;SDS011;6343;50.868;4.700;2023-03-01T03:15:17;8.37;;;6.73;;
12554;SDS011;6343;50.868;4.700;2023-03-01T03:17:45;12.83;;;7.90;;
12554;SDS011;6343;50.868;4.700;2023-03-01T03:20:13;12.53;;;7.73;;
12554;SDS011;6343;50.868;4.700;2023-03-01T03:22:44;11.53;;;7.20;;
12554;SDS011;6343;50.868;4.700;2023-03-01T03:25:10;10.60;;;7.83;;
12554;SDS011;6343;50.868;4.700;2023-03-01T03:27:40;11.33;;;7.20;;
12554;SDS011;6343;50.868;4.700;2023-03-01T03:30:09;10.50;;;7.33;;
12554;SDS011;6343;50.868;4.700;2023-03-01T03:32:40;10.93;;;7.67;;
12554;SDS011;6343;50.868;4.700;2023-03-01T03:35:07;9.80;;;6.83;;
12554;SDS011;6343;50.868;4.700;2023-03-01T03:37:40;10.43;;;6.63;;
12554;SDS011;6343;50.868;4.700;2023-03-01T03:40:26;11.17;;;7.53;;
12554;SDS011;6343;50.868;4.700;2023-03-01T03:42:52;10.03;;;6.80;;
12554;SDS011;6343;50.868;4.700;2023-03-01T03:45:18;9.50;;;6.63;;
12554;SDS011;6343;50.868;4.700;2023-03-01T03:47:44;8.93;;;6.73;;
12554;SDS011;6343;50.868;4.700;2023-03-01T03:50:11;9.23;;;6.97;;
12554;SDS011;6343;50.868;4.700;2023-03-01T03:52:37;12.30;;;7.27;;
12554;SDS011;6343;50.868;4.700;2023-03-01T03:55:04;10.37;;;7.10;;
12554;SDS011;6343;50.868;4.700;2023-03-01T03:57:41;11.30;;;7.43;;
12554;SDS011;6343;50.868;4.700;2023-03-01T04:00:09;11.43;;;7.47;;
12554;SDS011;6343;50.868;4.700;2023-03-01T04:02:41;11.30;;;6.47;;
12554;SDS011;6343;50.868;4.700;2023-03-01T04:05:09;10.83;;;7.47;;
12554;SDS011;6343;50.868;4.700;2023-03-01T04:07:36;10.13;;;7.07;;
12554;SDS011;6343;50.868;4.700;2023-03-01T04:10:03;8.47;;;7.00;;
12554;SDS011;6343;50.868;4.700;2023-03-01T04:12:29;9.53;;;6.97;;
12554;SDS011;6343;50.868;4.700;2023-03-01T04:14:55;9.80;;;7.03;;
12554;SDS011;6343;50.868;4.700;2023-03-01T04:17:21;9.27;;;7.23;;
12554;SDS011;6343;50.868;4.700;2023-03-01T04:19:47;11.43;;;7.30;;
12554;SDS011;6343;50.868;4.700;2023-03-01T04:22:14;8.97;;;6.57;;
12554;SDS011;6343;50.868;4.700;2023-03-01T04:24:43;10.37;;;7.33;;
12554;SDS011;6343;50.868;4.700;2023-03-01T04:27:10;11.33;;;7.20;;
12554;SDS011;6343;50.868;4.700;2023-03-01T04:29:36;10.00;;;7.20;;
12554;SDS011;6343;50.868;4.700;2023-03-01T04:32:02;9.20;;;6.57;;
12554;SDS011;6343;50.868;4.700;2023-03-01T04:34:29;8.80;;;6.93;;
12554;SDS011;6343;50.868;4.700;2023-03-01T04:36:55;7.97;;;6.67;;
12554;SDS011;6343;50.868;4.700;2023-03-01T04:39:21;11.70;;;6.90;;
12554;SDS011;6343;50.868;4.700;2023-03-01T04:41:47;11.43;;;6.87;;
12554;SDS011;6343;50.868;4.700;2023-03-01T04:44:13;9.93;;;7.73;;
12554;SDS011;6343;50.868;4.700;2023-03-01T04:46:39;13.07;;;7.63;;
12554;SDS011;6343;50.868;4.700;2023-03-01T04:49:05;12.27;;;7.30;;
12554;SDS011;6343;50.868;4.700;2023-03-01T04:51:31;9.97;;;7.30;;
12554;SDS011;6343;50.868;4.700;2023-03-01T04:53:58;10.27;;;6.50;;
12554;SDS011;6343;50.868;4.700;2023-03-01T04:56:25;10.33;;;7.47;;
12554;SDS011;6343;50.868;4.700;2023-03-01T04:58:53;11.80;;;7.33;;
12554;SDS011;6343;50.868;4.700;2023-03-01T05:01:19;9.73;;;7.30;;
12554;SDS011;6343;50.868;4.700;2023-03-01T05:03:47;11.93;;;7.30;;
12554;SDS011;6343;50.868;4.700;2023-03-01T05:06:13;9.73;;;7.03;;
12554;SDS011;6343;50.868;4.700;2023-03-01T05:08:40;12.27;;;7.70;;
12554;SDS011;6343;50.868;4.700;2023-03-01T05:11:07;10.50;;;7.60;;
12554;SDS011;6343;50.868;4.700;2023-03-01T05:13:34;9.93;;;7.43;;
12554;SDS011;6343;50.868;4.700;2023-03-01T05:16:01;12.43;;;7.70;;
12554;SDS011;6343;50.868;4.700;2023-03-01T05:18:28;13.27;;;7.60;;
12554;SDS011;6343;50.868;4.700;2023-03-01T05:20:56;11.67;;;7.17;;
12554;SDS011;6343;50.868;4.700;2023-03-01T05:23:23;9.40;;;6.80;;
12554;SDS011;6343;50.868;4.700;2023-03-01T05:25:49;11.50;;;7.53;;
12554;SDS011;6343;50.868;4.700;2023-03-01T05:28:17;11.57;;;7.10;;
12554;SDS011;6343;50.868;4.700;2023-03-01T05:30:44;14.07;;;7.23;;
12554;SDS011;6343;50.868;4.700;2023-03-01T05:33:10;12.90;;;7.23;;
12554;SDS011;6343;50.868;4.700;2023-03-01T05:35:42;15.40;;;8.13;;
12554;SDS011;6343;50.868;4.700;2023-03-01T05:38:09;14.40;;;7.70;;
12554;SDS011;6343;50.868;4.700;2023-03-01T05:40:38;11.20;;;7.20;;
12554;SDS011;6343;50.868;4.700;2023-03-01T05:43:05;14.80;;;8.10;;
12554;SDS011;6343;50.868;4.700;2023-03-01T05:45:31;10.37;;;7.67;;
12554;SDS011;6343;50.868;4.700;2023-03-01T05:47:57;18.70;;;9.93;;
12554;SDS011;6343;50.868;4.700;2023-03-01T05:50:27;10.63;;;7.40;;
12554;SDS011;6343;50.868;4.700;2023-03-01T05:52:58;16.40;;;10.70;;
12554;SDS011;6343;50.868;4.700;2023-03-01T05:55:24;12.13;;;8.20;;
12554;SDS011;6343;50.868;4.700;2023-03-01T05:57:50;12.27;;;7.87;;
12554;SDS011;6343;50.868;4.700;2023-03-01T06:00:17;16.50;;;10.57;;
12554;SDS011;6343;50.868;4.700;2023-03-01T06:02:44;14.90;;;7.70;;
12554;SDS011;6343;50.868;4.700;2023-03-01T06:05:10;14.57;;;8.20;;
12554;SDS011;6343;50.868;4.700;2023-03-01T06:07:37;12.83;;;7.63;;
12554;SDS011;6343;50.868;4.700;2023-03-01T06:10:03;13.87;;;8.27;;
12554;SDS011;6343;50.868;4.700;2023-03-01T06:12:33;29.07;;;13.80;;
12554;SDS011;6343;50.868;4.700;2023-03-01T06:15:00;22.67;;;11.53;;
12554;SDS011;6343;50.868;4.700;2023-03-01T06:17:28;17.50;;;9.93;;
12554;SDS011;6343;50.868;4.700;2023-03-01T06:19:54;17.13;;;9.43;;
12554;SDS011;6343;50.868;4.700;2023-03-01T06:22:20;22.50;;;11.73;;
12554;SDS011;6343;50.868;4.700;2023-03-01T06:24:46;18.80;;;9.40;;
12554;SDS011;6343;50.868;4.700;2023-03-01T06:27:13;32.53;;;15.17;;
12554;SDS011;6343;50.868;4.700;2023-03-01T06:29:39;21.97;;;11.20;;
12554;SDS011;6343;50.868;4.700;2023-03-01T06:32:05;16.10;;;9.50;;
12554;SDS011;6343;50.868;4.700;2023-03-01T06:34:32;14.90;;;9.13;;
12554;SDS011;6343;50.868;4.700;2023-03-01T06:36:58;18.03;;;9.70;;
12554;SDS011;6343;50.868;4.700;2023-03-01T06:39:24;22.20;;;11.33;;
12554;SDS011;6343;50.868;4.700;2023-03-01T06:41:50;16.17;;;9.47;;
12554;SDS011;6343;50.868;4.700;2023-03-01T06:44:16;14.13;;;9.00;;
12554;SDS011;6343;50.868;4.700;2023-03-01T06:46:42;15.63;;;8.70;;
12554;SDS011;6343;50.868;4.700;2023-03-01T06:49:09;13.43;;;7.37;;
12554;SDS011;6343;50.868;4.700;2023-03-01T06:51:38;17.17;;;9.30;;
12554;SDS011;6343;50.868;4.700;2023-03-01T06:54:04;15.63;;;8.97;;
12554;SDS011;6343;50.868;4.700;2023-03-01T06:56:31;17.43;;;10.17;;
12554;SDS011;6343;50.868;4.700;2023-03-01T06:58:57;13.03;;;8.53;;
12554;SDS011;6343;50.868;4.700;2023-03-01T07:01:23;12.30;;;8.17;;
12554;SDS011;6343;50.868;4.700;2023-03-01T07:03:49;13.70;;;8.90;;
12554;SDS011;6343;50.868;4.700;2023-03-01T07:06:15;17.13;;;8.60;;
12554;SDS011;6343;50.868;4.700;2023-03-01T07:08:42;11.00;;;7.77;;
12554;SDS011;6343;50.868;4.700;2023-03-01T07:11:08;14.97;;;8.83;;
12554;SDS011;6343;50.868;4.700;2023-03-01T07:13:34;15.73;;;8.27;;
12554;SDS011;6343;50.868;4.700;2023-03-01T07:16:01;32.00;;;9.00;;
12554;SDS011;6343;50.868;4.700;2023-03-01T07:18:27;14.23;;;7.70;;
12554;SDS011;6343;50.868;4.700;2023-03-01T07:20:53;10.47;;;7.43;;
12554;SDS011;6343;50.868;4.700;2023-03-01T07:23:19;12.30;;;7.30;;
12554;SDS011;6343;50.868;4.700;2023-03-01T07:25:50;16.77;;;7.50;;
12554;SDS011;6343;50.868;4.700;2023-03-01T07:28:16;18.60;;;7.43;;
12554;SDS011;6343;50.868;4.700;2023-03-01T07:30:43;11.93;;;7.67;;
12554;SDS011;6343;50.868;4.700;2023-03-01T07:33:09;12.83;;;7.50;;
12554;SDS011;6343;50.868;4.700;2023-03-01T07:35:36;15.00;;;7.87;;
12554;SDS011;6343;50.868;4.700;2023-03-01T07:38:02;21.73;;;7.57;;
12554;SDS011;6343;50.868;4.700;2023-03-01T07:40:28;16.40;;;8.30;;
12554;SDS011;6343;50.868;4.700;2023-03-01T07:42:55;14.17;;;8.10;;
12554;SDS011;6343;50.868;4.700;2023-03-01T07:45:21;14.33;;;7.90;;
12554;SDS011;6343;50.868;4.700;2023-03-01T07:47:47;17.03;;;8.00;;
12554;SDS011;6343;50.868;4.700;2023-03-01T07:50:13;15.27;;;8.57;;
12554;SDS011;6343;50.868;4.700;2023-03-01T07:52:40;17.77;;;11.23;;
12554;SDS011;6343;50.868;4.700;2023-03-01T07:55:06;11.20;;;8.47;;
12554;SDS011;6343;50.868;4.700;2023-03-01T07:57:32;16.23;;;8.57;;
12554;SDS011;6343;50.868;4.700;2023-03-01T07:59:58;17.17;;;10.93;;
12554;SDS011;6343;50.868;4.700;2023-03-01T08:02:25;17.67;;;9.87;;
12554;SDS011;6343;50.868;4.700;2023-03-01T08:04:51;14.67;;;8.90;;
12554;SDS011;6343;50.868;4.700;2023-03-01T08:07:17;12.93;;;8.03;;
12554;SDS011;6343;50.868;4.700;2023-03-01T08:09:43;12.27;;;7.63;;
12554;SDS011;6343;50.868;4.700;2023-03-01T08:12:10;13.60;;;8.70;;
12554;SDS011;6343;50.868;4.700;2023-03-01T08:14:36;11.00;;;7.57;;
12554;SDS011;6343;50.868;4.700;2023-03-01T08:17:02;20.27;;;8.80;;
12554;SDS011;6343;50.868;4.700;2023-03-01T08:19:28;13.13;;;8.20;;
12554;SDS011;6343;50.868;4.700;2023-03-01T08:21:54;10.87;;;7.93;;
12554;SDS011;6343;50.868;4.700;2023-03-01T08:24:23;12.70;;;7.83;;
12554;SDS011;6343;50.868;4.700;2023-03-01T08:26:49;12.03;;;7.90;;
12554;SDS011;6343;50.868;4.700;2023-03-01T08:29:15;13.60;;;7.83;;
12554;SDS011;6343;50.868;4.700;2023-03-01T08:31:41;13.23;;;8.27;;
12554;SDS011;6343;50.868;4.700;2023-03-01T08:34:09;13.23;;;7.80;;
12554;SDS011;6343;50.868;4.700;2023-03-01T08:36:36;14.57;;;8.23;;
12554;SDS011;6343;50.868;4.700;2023-03-01T08:39:03;15.07;;;7.47;;
12554;SDS011;6343;50.868;4.700;2023-03-01T08:41:30;12.73;;;7.40;;
12554;SDS011;6343;50.868;4.700;2023-03-01T08:43:59;12.37;;;7.73;;
12554;SDS011;6343;50.868;4.700;2023-03-01T08:46:26;16.43;;;8.00;;
12554;SDS011;6343;50.868;4.700;2023-03-01T08:48:52;12.30;;;7.53;;
12554;SDS011;6343;50.868;4.700;2023-03-01T08:51:19;12.77;;;7.53;;
12554;SDS011;6343;50.868;4.700;2023-03-01T08:53:45;15.73;;;8.13;;
12554;SDS011;6343;50.868;4.700;2023-03-01T08:56:12;11.77;;;7.20;;
12554;SDS011;6343;50.868;4.700;2023-03-01T08:58:38;12.23;;;8.20;;
12554;SDS011;6343;50.868;4.700;2023-03-01T09:01:08;12.90;;;8.50;;
12554;SDS011;6343;50.868;4.700;2023-03-01T09:03:35;12.83;;;8.43;;
12554;SDS011;6343;50.868;4.700;2023-03-01T09:06:02;18.67;;;8.70;;
12554;SDS011;6343;50.868;4.700;2023-03-01T09:08:28;10.87;;;8.40;;
12554;SDS011;6343;50.868;4.700;2023-03-01T09:10:55;14.07;;;7.90;;
12554;SDS011;6343;50.868;4.700;2023-03-01T09:13:21;15.17;;;8.03;;
12554;SDS011;6343;50.868;4.700;2023-03-01T09:15:52;13.73;;;8.93;;
12554;SDS011;6343;50.868;4.700;2023-03-01T09:18:18;14.27;;;8.80;;
12554;SDS011;6343;50.868;4.700;2023-03-01T09:20:44;14.93;;;8.83;;
12554;SDS011;6343;50.868;4.700;2023-03-01T09:23:11;13.77;;;8.60;;
12554;SDS011;6343;50.868;4.700;2023-03-01T09:25:37;25.50;;;8.93;;
12554;SDS011;6343;50.868;4.700;2023-03-01T09:28:03;15.63;;;9.20;;
12554;SDS011;6343;50.868;4.700;2023-03-01T09:30:29;15.90;;;10.10;;
12554;SDS011;6343;50.868;4.700;2023-03-01T09:32:58;12.30;;;7.93;;
12554;SDS011;6343;50.868;4.700;2023-03-01T09:35:25;14.07;;;9.67;;
12554;SDS011;6343;50.868;4.700;2023-03-01T09:37:51;13.13;;;9.03;;
12554;SDS011;6343;50.868;4.700;2023-03-01T09:40:27;15.93;;;8.80;;
12554;SDS011;6343;50.868;4.700;2023-03-01T09:43:06;14.17;;;8.90;;
12554;SDS011;6343;50.868;4.700;2023-03-01T09:45:34;14.03;;;9.10;;
12554;SDS011;6343;50.868;4.700;2023-03-01T09:48:00;15.23;;;9.93;;
12554;SDS011;6343;50.868;4.700;2023-03-01T09:50:28;14.60;;;8.67;;
12554;SDS011;6343;50.868;4.700;2023-03-01T09:53:01;14.90;;;8.43;;
12554;SDS011;6343;50.868;4.700;2023-03-01T09:55:39;11.27;;;7.87;;
12554;SDS011;6343;50.868;4.700;2023-03-01T10:00:43;15.03;;;9.47;;
12554;SDS011;6343;50.868;4.700;2023-03-01T10:03:17;12.90;;;9.03;;
12554;SDS011;6343;50.868;4.700;2023-03-01T10:10:50;13.13;;;9.20;;
12554;SDS011;6343;50.868;4.700;2023-03-01T10:15:44;12.10;;;8.67;;
12554;SDS011;6343;50.868;4.700;2023-03-01T10:18:17;14.00;;;8.97;;
12554;SDS011;6343;50.868;4.700;2023-03-01T10:23:23;14.50;;;9.27;;
12554;SDS011;6343;50.868;4.700;2023-03-01T10:31:12;11.10;;;8.63;;
12554;SDS011;6343;50.868;4.700;2023-03-01T10:33:39;11.63;;;8.30;;
12554;SDS011;6343;50.868;4.700;2023-03-01T10:36:07;13.37;;;8.80;;
12554;SDS011;6343;50.868;4.700;2023-03-01T10:38:47;13.47;;;8.93;;
12554;SDS011;6343;50.868;4.700;2023-03-01T10:41:14;17.07;;;9.20;;
12554;SDS011;6343;50.868;4.700;2023-03-01T10:46:43;12.27;;;9.20;;
12554;SDS011;6343;50.868;4.700;2023-03-01T10:49:14;11.70;;;8.23;;
12554;SDS011;6343;50.868;4.700;2023-03-01T10:51:41;14.63;;;8.73;;
12554;SDS011;6343;50.868;4.700;2023-03-01T10:54:18;12.37;;;8.97;;
12554;SDS011;6343;50.868;4.700;2023-03-01T10:56:51;12.97;;;8.77;;
12554;SDS011;6343;50.868;4.700;2023-03-01T10:59:27;11.57;;;8.43;;
12554;SDS011;6343;50.868;4.700;2023-03-01T11:02:35;10.93;;;8.23;;
12554;SDS011;6343;50.868;4.700;2023-03-01T11:07:24;11.93;;;8.37;;
12554;SDS011;6343;50.868;4.700;2023-03-01T11:09:50;14.23;;;8.17;;
12554;SDS011;6343;50.868;4.700;2023-03-01T11:12:16;16.30;;;7.80;;
12554;SDS011;6343;50.868;4.700;2023-03-01T11:14:46;11.97;;;8.47;;
12554;SDS011;6343;50.868;4.700;2023-03-01T11:19:39;10.90;;;7.93;;
12554;SDS011;6343;50.868;4.700;2023-03-01T11:22:27;15.20;;;8.97;;
12554;SDS011;6343;50.868;4.700;2023-03-01T11:24:53;12.53;;;8.23;;
12554;SDS011;6343;50.868;4.700;2023-03-01T11:27:21;10.90;;;8.90;;
12554;SDS011;6343;50.868;4.700;2023-03-01T11:29:51;10.80;;;8.00;;
12554;SDS011;6343;50.868;4.700;2023-03-01T11:32:18;12.70;;;8.50;;
12554;SDS011;6343;50.868;4.700;2023-03-01T11:37:16;15.43;;;8.43;;
12554;SDS011;6343;50.868;4.700;2023-03-01T11:39:58;15.33;;;9.23;;
12554;SDS011;6343;50.868;4.700;2023-03-01T11:45:11;15.20;;;8.27;;
12554;SDS011;6343;50.868;4.700;2023-03-01T11:47:44;13.87;;;8.70;;
12554;SDS011;6343;50.868;4.700;2023-03-01T11:50:25;10.53;;;8.00;;
12554;SDS011;6343;50.868;4.700;2023-03-01T12:03:28;12.27;;;8.43;;
12554;SDS011;6343;50.868;4.700;2023-03-01T12:19:11;17.63;;;8.53;;
12554;SDS011;6343;50.868;4.700;2023-03-01T12:21:35;12.47;;;8.43;;
12554;SDS011;6343;50.868;4.700;2023-03-01T12:24:20;14.50;;;8.10;;
12554;SDS011;6343;50.868;4.700;2023-03-01T12:34:39;13.57;;;8.20;;
12554;SDS011;6343;50.868;4.700;2023-03-01T12:47:41;11.53;;;8.30;;
12554;SDS011;6343;50.868;4.700;2023-03-01T12:50:21;13.53;;;8.57;;
12554;SDS011;6343;50.868;4.700;2023-03-01T12:52:53;12.60;;;7.77;;
12554;SDS011;6343;50.868;4.700;2023-03-01T12:58:02;12.30;;;7.93;;
12554;SDS011;6343;50.868;4.700;2023-03-01T13:00:32;11.63;;;7.83;;
12554;SDS011;6343;50.868;4.700;2023-03-01T13:06:00;13.60;;;7.50;;
12554;SDS011;6343;50.868;4.700;2023-03-01T13:11:03;11.90;;;7.97;;
12554;SDS011;6343;50.868;4.700;2023-03-01T13:13:31;11.10;;;7.77;;
12554;SDS011;6343;50.868;4.700;2023-03-01T13:15:57;13.27;;;8.67;;
12554;SDS011;6343;50.868;4.700;2023-03-01T13:18:43;10.63;;;8.30;;
12554;SDS011;6343;50.868;4.700;2023-03-01T13:21:09;12.80;;;8.00;;
12554;SDS011;6343;50.868;4.700;2023-03-01T13:23:38;10.17;;;7.63;;
12554;SDS011;6343;50.868;4.700;2023-03-01T13:31:02;11.17;;;7.20;;
12554;SDS011;6343;50.868;4.700;2023-03-01T13:35:55;10.83;;;7.57;;
12554;SDS011;6343;50.868;4.700;2023-03-01T13:41:04;10.43;;;7.50;;
12554;SDS011;6343;50.868;4.700;2023-03-01T13:43:38;13.80;;;8.63;;
12554;SDS011;6343;50.868;4.700;2023-03-01T13:46:08;10.80;;;8.17;;
12554;SDS011;6343;50.868;4.700;2023-03-01T13:48:36;10.93;;;7.73;;
12554;SDS011;6343;50.868;4.700;2023-03-01T13:51:04;12.63;;;7.27;;
12554;SDS011;6343;50.868;4.700;2023-03-01T13:53:33;12.70;;;7.40;;
12554;SDS011;6343;50.868;4.700;2023-03-01T13:56:00;10.20;;;7.57;;
12554;SDS011;6343;50.868;4.700;2023-03-01T13:58:29;11.47;;;7.37;;
12554;SDS011;6343;50.868;4.700;2023-03-01T14:01:00;11.40;;;7.73;;
12554;SDS011;6343;50.868;4.700;2023-03-01T14:03:26;11.20;;;6.93;;
12554;SDS011;6343;50.868;4.700;2023-03-01T14:08:35;11.93;;;7.70;;
12554;SDS011;6343;50.868;4.700;2023-03-01T14:21:24;14.30;;;7.20;;
12554;SDS011;6343;50.868;4.700;2023-03-01T14:23:51;10.87;;;7.33;;
12554;SDS011;6343;50.868;4.700;2023-03-01T14:26:21;9.73;;;6.90;;
12554;SDS011;6343;50.868;4.700;2023-03-01T14:28:48;10.73;;;6.67;;
12554;SDS011;6343;50.868;4.700;2023-03-01T14:33:59;9.13;;;6.53;;
12554;SDS011;6343;50.868;4.700;2023-03-01T14:36:27;14.73;;;6.77;;
12554;SDS011;6343;50.868;4.700;2023-03-01T14:38:54;12.83;;;7.40;;
12554;SDS011;6343;50.868;4.700;2023-03-01T14:41:21;9.73;;;6.60;;
12554;SDS011;6343;50.868;4.700;2023-03-01T14:43:52;11.40;;;6.80;;
12554;SDS011;6343;50.868;4.700;2023-03-01T14:46:31;11.80;;;6.77;;
12554;SDS011;6343;50.868;4.700;2023-03-01T14:49:01;9.80;;;7.07;;
12554;SDS011;6343;50.868;4.700;2023-03-01T14:51:28;8.93;;;6.40;;
12554;SDS011;6343;50.868;4.700;2023-03-01T14:53:54;10.03;;;6.90;;
12554;SDS011;6343;50.868;4.700;2023-03-01T14:56:21;11.43;;;7.10;;
12554;SDS011;6343;50.868;4.700;2023-03-01T14:58:50;10.67;;;6.83;;
12554;SDS011;6343;50.868;4.700;2023-03-01T15:01:17;7.90;;;5.73;;
12554;SDS011;6343;50.868;4.700;2023-03-01T15:03:44;7.70;;;6.07;;
12554;SDS011;6343;50.868;4.700;2023-03-01T15:06:12;8.07;;;6.00;;
12554;SDS011;6343;50.868;4.700;2023-03-01T15:08:41;15.37;;;6.30;;
12554;SDS011;6343;50.868;4.700;2023-03-01T15:11:21;16.27;;;6.87;;
12554;SDS011;6343;50.868;4.700;2023-03-01T15:13:49;15.40;;;6.57;;
12554;SDS011;6343;50.868;4.700;2023-03-01T15:16:19;11.53;;;6.37;;
12554;SDS011;6343;50.868;4.700;2023-03-01T15:18:48;9.53;;;5.80;;
12554;SDS011;6343;50.868;4.700;2023-03-01T15:23:52;11.30;;;6.60;;
12554;SDS011;6343;50.868;4.700;2023-03-01T15:26:22;10.10;;;6.17;;
12554;SDS011;6343;50.868;4.700;2023-03-01T15:28:50;12.60;;;6.63;;
12554;SDS011;6343;50.868;4.700;2023-03-01T15:31:18;11.97;;;6.53;;
12554;SDS011;6343;50.868;4.700;2023-03-01T15:33:46;10.73;;;6.23;;
12554;SDS011;6343;50.868;4.700;2023-03-01T15:38:57;12.77;;;6.27;;
12554;SDS011;6343;50.868;4.700;2023-03-01T15:41:26;10.60;;;6.90;;
12554;SDS011;6343;50.868;4.700;2023-03-01T15:43:53;11.20;;;6.80;;
12554;SDS011;6343;50.868;4.700;2023-03-01T15:46:24;10.67;;;5.97;;
12554;SDS011;6343;50.868;4.700;2023-03-01T15:48:59;9.27;;;6.40;;
12554;SDS011;6343;50.868;4.700;2023-03-01T15:51:35;9.50;;;6.00;;
12554;SDS011;6343;50.868;4.700;2023-03-01T15:54:06;8.60;;;6.47;;
12554;SDS011;6343;50.868;4.700;2023-03-01T15:56:36;10.00;;;6.73;;
12554;SDS011;6343;50.868;4.700;2023-03-01T15:59:02;11.80;;;7.40;;
12554;SDS011;6343;50.868;4.700;2023-03-01T16:01:29;9.80;;;6.17;;
12554;SDS011;6343;50.868;4.700;2023-03-01T16:03:55;9.10;;;6.40;;
12554;SDS011;6343;50.868;4.700;2023-03-01T16:06:23;12.30;;;7.20;;
12554;SDS011;6343;50.868;4.700;2023-03-01T16:08:49;9.33;;;6.30;;
12554;SDS011;6343;50.868;4.700;2023-03-01T16:11:16;9.27;;;6.00;;
12554;SDS011;6343;50.868;4.700;2023-03-01T16:13:42;8.93;;;5.90;;
12554;SDS011;6343;50.868;4.700;2023-03-01T16:16:13;8.90;;;6.37;;
12554;SDS011;6343;50.868;4.700;2023-03-01T16:18:45;9.47;;;6.00;;
12554;SDS011;6343;50.868;4.700;2023-03-01T16:21:15;12.20;;;6.33;;
12554;SDS011;6343;50.868;4.700;2023-03-01T16:23:42;8.63;;;5.57;;
12554;SDS011;6343;50.868;4.700;2023-03-01T16:26:09;9.70;;;6.67;;
12554;SDS011;6343;50.868;4.700;2023-03-01T16:28:35;10.20;;;6.77;;
12554;SDS011;6343;50.868;4.700;2023-03-01T16:31:01;7.63;;;5.90;;
12554;SDS011;6343;50.868;4.700;2023-03-01T16:33:27;7.53;;;6.07;;
12554;SDS011;6343;50.868;4.700;2023-03-01T16:35:54;10.53;;;6.53;;
12554;SDS011;6343;50.868;4.700;2023-03-01T16:38:20;12.23;;;6.33;;
12554;SDS011;6343;50.868;4.700;2023-03-01T16:40:47;9.97;;;6.67;;
12554;SDS011;6343;50.868;4.700;2023-03-01T16:43:13;12.50;;;6.07;;
12554;SDS011;6343;50.868;4.700;2023-03-01T16:45:40;9.23;;;5.80;;
12554;SDS011;6343;50.868;4.700;2023-03-01T16:48:09;7.13;;;4.83;;
12554;SDS011;6343;50.868;4.700;2023-03-01T16:50:35;10.00;;;5.97;;
12554;SDS011;6343;50.868;4.700;2023-03-01T16:53:01;10.63;;;6.37;;
12554;SDS011;6343;50.868;4.700;2023-03-01T16:55:28;9.27;;;6.20;;
12554;SDS011;6343;50.868;4.700;2023-03-01T16:57:54;11.13;;;6.00;;
12554;SDS011;6343;50.868;4.700;2023-03-01T17:00:20;9.30;;;6.67;;